< < Back
Terminal Aerodrome Forecast


Current Version              Previous Versions:   1  2  3  4  5  6  7  8  9  

Terminal Aerodrome Forecast

181
FTUS42 KCHS 152300 CCA
TAFCHS
TAF COR
KCHS 152345Z 1600/1624 27012G22KT P6SM BKN035
     FM160100 30012G21KT P6SM FEW015 SCT025
     FM160300 33015G25KT P6SM SKC
     FM160600 36015G25KT P6SM SKC
     FM161200 03012G24KT P6SM SKC
     FM162100 06012G20KT P6SM SKC=

Latest METAR

034
SAUS80 KWBC 160400
MTRCHS
METAR KCHS 160356Z 01014G23KT 10SM SCT021 BKN030 OVC046 13/08 A2997 RMK
AO2 PK WND 36026/0314 PRESRR SLP146 T01330078


USA.gov is the U.S. government's official web portal to all federal, state and local government web resources and services.